ホニアラ の空港の天気 - METARとTAF

ホニアラ国際空港 ( AGGH / HIR ) - ソロモン諸島 ガダルカナル島ホニアラ
飛行場実況気象(Metar)
観測時間05/27 10:00 SBT (05/26 23:00 UTC)
風向・風速東南東 3m/s
視程10km以上
天気現象
少しの雲 雲底高度 550m
全天の8割程度の雲 雲底高度 3050m
気温28℃
湿度84%
気圧1014hPa
METARAGGH 262300Z 11005KT 9999 FEW018 BKN100 28/25 Q1014 TO N,NE,E
過去の天気等 Google飛行場航空写真 Wunderground天気予報

過去48時間のMETAR

飛行場予報(TAF)
発表時間: 5/27 10:10 SBT (5/26 23:10 UTC)
予報対象時間: 27日11時 SBT ~ 28日11時 SBT
風向・風速北東 5m/s
視程10km以上
全天の4割程度の雲 雲底高度 550m
全天の4割程度の雲 雲底高度 910m
TAF AGGH 262310Z 2700/2724 05010KT 9999 SCT018 SCT030
PROB30 INTER 2700/2706 8000 -TSSH BKN015 FEW016CB T 29 30 30 28 Q 1014 1012 1011 1013